createdAt,value
2018-05-06T15:57:13.587Z,25.88
2018-05-06T16:00:08.994Z,25.47
2018-05-06T16:01:08.902Z,25.40
2018-05-06T16:03:10.805Z,25.60
2018-05-06T16:04:03.794Z,25.50
2018-05-06T16:05:58.662Z,25.33
2018-05-06T16:06:59.182Z,25.41
2018-05-06T16:08:56.059Z,25.43
2018-05-06T16:09:52.056Z,25.33
2018-05-06T16:11:50.979Z,25.10
2018-05-06T16:12:46.965Z,24.89
2018-05-06T16:14:41.341Z,24.54
2018-05-06T16:15:41.840Z,24.55
2018-05-06T16:17:38.290Z,24.50
2018-05-06T16:18:36.734Z,24.50
2018-05-06T16:20:32.608Z,24.66
2018-05-06T16:21:30.108Z,24.30
2018-05-06T16:23:24.499Z,24.11
2018-05-06T16:24:25.002Z,24.17
2018-05-06T16:26:19.386Z,24.06
2018-05-06T16:27:19.373Z,24.11
2018-05-06T16:29:14.775Z,24.32
2018-05-06T16:31:27.670Z,23.92
2018-05-06T16:33:43.073Z,23.91
2018-05-06T16:34:43.213Z,23.81
2018-05-06T16:36:36.962Z,23.59
2018-05-06T16:39:30.869Z,23.28
2018-05-06T16:40:30.355Z,23.34
2018-05-06T16:42:24.368Z,23.31
2018-05-06T16:44:40.134Z,23.41
2018-05-06T16:45:39.640Z,23.46
2018-05-06T16:47:39.035Z,23.17
2018-05-06T16:48:34.054Z,22.93
2018-05-06T16:50:27.939Z,22.94
2018-05-06T16:51:27.423Z,22.94
2018-05-06T16:53:32.862Z,22.85
2018-05-06T16:54:28.352Z,22.81
2018-05-06T16:56:21.210Z,22.36
2018-05-06T16:57:20.763Z,22.22
2018-05-06T16:59:14.100Z,21.98
2018-05-06T17:00:15.078Z,22.02
2018-05-06T17:02:08.698Z,21.93
2018-05-06T17:03:09.186Z,21.95
2018-05-06T17:05:03.596Z,21.88
2018-05-06T17:06:03.600Z,21.82
2018-05-06T17:07:57.478Z,21.75
2018-05-06T17:08:58.972Z,21.77
2018-05-06T17:10:51.868Z,21.64
2018-05-06T17:11:52.863Z,21.58
2018-05-06T17:13:46.736Z,21.69
2018-05-06T17:14:46.749Z,21.57
2018-05-06T17:16:41.621Z,21.54
2018-05-06T17:17:42.611Z,21.46
2018-05-06T17:19:55.511Z,21.50
2018-05-06T17:21:28.405Z,21.30
2018-05-06T17:22:28.903Z,21.35
2018-05-06T17:24:25.786Z,21.35
2018-05-06T17:25:23.781Z,21.30
2018-05-06T17:27:17.622Z,21.24
2018-05-06T17:28:17.674Z,21.18
2018-05-06T17:30:13.561Z,21.12
2018-05-06T17:32:26.948Z,21.14
2018-05-06T17:33:26.476Z,21.09
2018-05-06T17:35:21.847Z,21.20
2018-05-06T17:36:22.353Z,21.07
2018-05-06T17:38:15.749Z,21.17
2018-05-06T17:39:13.966Z,21.07
2018-05-06T17:41:10.632Z,21.03
2018-05-06T17:42:10.129Z,21.06
2018-05-06T17:44:06.031Z,21.12
2018-05-06T17:45:04.091Z,21.14
2018-05-06T17:46:58.928Z,21.02
2018-05-06T17:47:58.429Z,20.96
2018-05-06T17:49:53.806Z,21.00
2018-05-06T17:52:47.198Z,20.99
2018-05-06T17:53:47.708Z,20.93
2018-05-06T17:55:41.230Z,20.88
2018-05-06T17:56:41.578Z,20.81
2018-05-06T17:58:34.493Z,20.75
2018-05-06T17:59:34.518Z,20.77
2018-05-06T18:01:29.379Z,20.75
2018-05-06T18:02:29.160Z,20.74
2018-05-06T18:04:24.248Z,20.69
2018-05-06T18:05:24.215Z,20.62
2018-05-06T18:07:18.759Z,20.62
2018-05-06T18:08:18.621Z,20.58
2018-05-06T18:10:13.052Z,20.56
2018-05-06T18:11:12.998Z,20.43
2018-05-06T18:13:07.470Z,20.41
2018-05-06T18:14:07.395Z,20.43
2018-05-06T18:16:01.783Z,20.43
2018-05-06T18:17:01.784Z,20.29
2018-05-06T18:18:56.301Z,20.31
2018-05-06T18:19:56.222Z,20.39
2018-05-06T18:21:50.621Z,20.21
2018-05-06T18:22:50.558Z,20.21
2018-05-06T18:24:45.054Z,20.19
2018-05-06T18:25:44.956Z,20.16
2018-05-06T18:27:39.385Z,20.19
2018-05-06T18:28:39.360Z,20.07
2018-05-06T18:30:33.810Z,20.09
2018-05-06T18:31:33.725Z,20.14
2018-05-06T18:33:28.219Z,20.07
2018-05-06T18:34:28.119Z,20.04
2018-05-06T18:36:22.492Z,19.94
2018-05-06T18:37:22.489Z,20.04
2018-05-06T18:39:16.935Z,19.89
2018-05-06T18:40:16.912Z,19.94
2018-05-06T18:42:11.260Z,19.91
2018-05-06T18:43:11.259Z,19.88
2018-05-06T18:45:05.706Z,19.84
2018-05-06T18:46:05.644Z,19.85
2018-05-06T18:48:00.039Z,19.70
2018-05-06T18:49:00.026Z,19.69
2018-05-06T18:50:54.583Z,19.63
2018-05-06T18:51:54.427Z,19.58
2018-05-06T18:53:47.826Z,19.48
2018-05-06T18:54:47.823Z,19.48
2018-05-06T18:56:42.340Z,19.41
2018-05-06T18:57:42.290Z,19.40
2018-05-06T18:59:36.745Z,19.36
2018-05-06T19:00:36.695Z,19.31
2018-05-06T19:02:31.112Z,19.30
2018-05-06T19:03:31.046Z,19.19
2018-05-06T19:05:25.427Z,19.22
2018-05-06T19:06:25.424Z,19.12
2018-05-06T19:08:20.001Z,19.08
2018-05-06T19:09:19.827Z,19.15
2018-05-06T19:11:14.205Z,19.12
2018-05-06T19:12:14.204Z,19.09
2018-05-06T19:14:08.635Z,19.09
2018-05-06T19:15:08.597Z,18.99
2018-05-06T19:17:03.111Z,18.90
2018-05-06T19:18:02.969Z,18.95
2018-05-06T19:19:57.504Z,18.95
2018-05-06T19:20:57.556Z,18.93
2018-05-06T19:22:51.894Z,18.83
2018-05-06T19:23:51.766Z,18.90
2018-05-06T19:25:46.649Z,18.77
2018-05-06T19:26:46.229Z,18.81
2018-05-06T19:28:41.383Z,18.80
2018-05-06T19:29:41.489Z,18.75
2018-05-06T19:31:35.806Z,18.73
2018-05-06T19:32:35.915Z,18.59
2018-05-06T19:34:30.203Z,18.59
2018-05-06T19:35:30.146Z,18.55
2018-05-06T19:36:30.143Z,18.53
2018-05-06T19:37:30.145Z,18.44
2018-05-06T19:38:30.177Z,18.40
2018-05-06T19:39:30.252Z,18.38
2018-05-06T19:40:30.180Z,18.28
2018-05-06T19:41:30.632Z,18.31
2018-05-06T19:42:30.238Z,18.23
2018-05-06T19:43:30.168Z,18.22
2018-05-06T19:44:34.159Z,18.11
2018-05-06T19:45:33.658Z,18.03
2018-05-06T19:46:31.669Z,17.97
2018-05-06T19:47:35.153Z,17.94
2018-05-06T19:48:31.188Z,17.85
2018-05-06T19:49:31.175Z,17.78
2018-05-06T19:50:31.678Z,17.71
2018-05-06T19:51:31.677Z,17.60
2018-05-06T19:52:33.167Z,17.63
2018-05-06T19:53:32.177Z,17.48
2018-05-06T19:54:39.166Z,17.51
2018-05-06T19:55:33.638Z,17.56
2018-05-06T19:56:30.188Z,17.48
2018-05-06T19:57:30.192Z,17.38
2018-05-06T19:58:30.192Z,17.33
2018-05-06T19:59:30.196Z,17.24
2018-05-06T20:00:30.198Z,17.23
2018-05-06T20:01:30.207Z,17.16
2018-05-06T20:02:30.227Z,17.16
2018-05-06T20:03:30.211Z,17.11
2018-05-06T20:04:30.225Z,17.12
2018-05-06T20:05:30.206Z,17.01
2018-05-06T20:06:30.211Z,17.05
2018-05-06T20:07:30.231Z,16.97
2018-05-06T20:08:30.220Z,16.93
2018-05-06T20:09:30.216Z,16.96
2018-05-06T20:10:30.219Z,16.94
2018-05-06T20:11:30.218Z,16.96
2018-05-06T20:12:30.227Z,16.87
2018-05-06T20:13:30.281Z,16.84
2018-05-06T20:14:30.235Z,16.75
2018-05-06T20:15:30.224Z,16.68
2018-05-06T20:16:30.227Z,16.68
2018-05-06T20:17:30.227Z,16.61
2018-05-06T20:18:30.229Z,16.54
2018-05-06T20:19:30.231Z,16.58
2018-05-06T20:20:30.231Z,16.54
2018-05-06T20:21:30.241Z,16.41
2018-05-06T20:22:30.234Z,16.46
2018-05-06T20:23:30.245Z,16.41
2018-05-06T20:24:30.239Z,16.38
2018-05-06T20:25:30.238Z,16.35
2018-05-06T20:26:30.239Z,16.35
2018-05-06T20:27:30.241Z,16.23
2018-05-06T20:28:30.244Z,16.20
2018-05-06T20:29:30.245Z,16.21
2018-05-06T20:30:30.247Z,16.16
2018-05-06T20:31:30.246Z,16.17
2018-05-06T20:32:30.273Z,16.10
2018-05-06T20:33:30.248Z,16.12
2018-05-06T20:34:30.256Z,16.04
2018-05-06T20:35:30.251Z,16.04
2018-05-06T20:36:30.254Z,16.05
2018-05-06T20:37:30.253Z,16.04
2018-05-06T20:38:30.394Z,15.97
2018-05-06T20:39:30.259Z,15.90
2018-05-06T20:40:30.256Z,15.94
2018-05-06T20:41:30.259Z,15.92
2018-05-06T20:42:30.276Z,15.77
2018-05-06T20:43:30.288Z,15.80
2018-05-06T20:44:30.252Z,15.80
2018-05-06T20:45:31.181Z,15.76
2018-05-06T20:46:32.676Z,15.84
2018-05-06T20:47:32.688Z,15.70
2018-05-06T20:48:33.686Z,15.72
2018-05-06T20:49:31.180Z,15.64
2018-05-06T20:50:38.194Z,15.67
2018-05-06T20:51:32.206Z,15.64
2018-05-06T20:52:31.690Z,15.61
2018-05-06T20:53:31.687Z,15.62
2018-05-06T20:54:31.200Z,15.57
2018-05-06T20:55:31.190Z,15.59
2018-05-06T20:56:32.180Z,15.52
2018-05-06T20:57:32.691Z,15.52
2018-05-06T20:58:32.187Z,15.59
2018-05-06T20:59:30.366Z,15.54
2018-05-06T21:00:33.179Z,15.46
2018-05-06T21:01:31.683Z,15.44
2018-05-06T21:02:32.686Z,15.40
2018-05-06T21:03:33.187Z,15.37
2018-05-06T21:04:31.201Z,15.39
2018-05-06T21:05:31.708Z,15.28
2018-05-06T21:06:31.199Z,15.33
2018-05-06T21:07:38.203Z,15.27
2018-05-06T21:08:31.201Z,15.28
2018-05-06T21:09:31.676Z,15.29
2018-05-06T21:10:32.278Z,15.19
2018-05-06T21:11:31.190Z,15.14
2018-05-06T21:12:32.178Z,15.14
2018-05-06T21:13:35.730Z,15.00
2018-05-06T21:14:31.202Z,14.96
2018-05-06T21:15:33.190Z,14.99
2018-05-06T21:16:31.681Z,15.07
2018-05-06T21:17:32.686Z,15.04
2018-05-06T21:18:31.704Z,15.04
2018-05-06T21:19:32.682Z,15.06
2018-05-06T21:20:31.248Z,15.07
2018-05-06T21:21:31.691Z,15.03
2018-05-06T21:22:32.699Z,14.97
2018-05-06T21:23:31.684Z,14.86
2018-05-06T21:24:32.192Z,14.96
2018-05-06T21:25:32.684Z,14.91
2018-05-06T21:26:31.692Z,14.92
2018-05-06T21:27:35.206Z,14.92
2018-05-06T21:28:32.775Z,14.85
2018-05-06T21:29:32.693Z,14.73
2018-05-06T21:30:33.187Z,14.78
2018-05-06T21:31:33.212Z,14.70
2018-05-06T21:32:32.192Z,14.77
2018-05-06T21:33:32.201Z,14.73
2018-05-06T21:34:33.692Z,14.77
2018-05-06T21:35:31.235Z,14.79
2018-05-06T21:36:31.200Z,14.73
2018-05-06T21:37:31.697Z,14.62
2018-05-06T21:38:31.203Z,14.62
2018-05-06T21:39:31.700Z,14.59
2018-05-06T21:40:36.192Z,14.55
2018-05-06T21:41:31.708Z,14.50
2018-05-06T21:42:31.206Z,14.55
2018-05-06T21:43:31.283Z,14.54
2018-05-06T21:44:31.694Z,14.45
2018-05-06T21:45:32.192Z,14.53
2018-05-06T21:46:32.204Z,14.41
2018-05-06T21:47:31.207Z,14.50
2018-05-06T21:48:32.195Z,14.47
2018-05-06T21:49:31.212Z,14.47
2018-05-06T21:50:30.409Z,14.40
2018-05-06T21:51:31.194Z,14.35
2018-05-06T21:52:32.701Z,14.41
2018-05-06T21:53:32.697Z,14.37
2018-05-06T21:54:31.725Z,14.36
2018-05-06T21:55:35.211Z,14.41
2018-05-06T21:56:30.449Z,14.36
2018-05-06T21:57:31.704Z,14.40
2018-05-06T21:58:31.210Z,14.23
2018-05-06T21:59:32.202Z,14.25
2018-05-06T22:00:31.204Z,14.20
2018-05-06T22:01:35.195Z,14.23
2018-05-06T22:02:31.698Z,14.18
2018-05-06T22:03:32.211Z,14.12
2018-05-06T22:04:31.209Z,14.14
2018-05-06T22:05:32.206Z,14.12
2018-05-06T22:06:31.188Z,14.08
2018-05-06T22:07:31.222Z,14.14
2018-05-06T22:08:31.709Z,14.08
2018-05-06T22:09:31.692Z,14.08
2018-05-06T22:10:31.706Z,14.03
2018-05-06T22:11:32.196Z,13.96
2018-05-06T22:12:31.196Z,13.97
2018-05-06T22:13:31.192Z,13.96
2018-05-06T22:14:32.220Z,13.93
2018-05-06T22:15:31.708Z,13.92
2018-05-06T22:16:31.703Z,13.96
2018-05-06T22:17:33.708Z,13.85
2018-05-06T22:18:31.228Z,13.85
2018-05-06T22:19:31.205Z,13.97
2018-05-06T22:20:31.707Z,13.85
2018-05-06T22:21:31.703Z,13.83
2018-05-06T22:22:40.310Z,13.89
2018-05-06T22:23:33.710Z,13.77
2018-05-06T22:24:31.699Z,13.86
2018-05-06T22:25:31.697Z,13.85
2018-05-06T22:26:31.703Z,13.78
2018-05-06T22:27:31.711Z,13.75
2018-05-06T22:28:32.713Z,13.71
2018-05-06T22:29:30.401Z,13.72
2018-05-06T22:30:31.210Z,13.72
2018-05-06T22:31:32.224Z,13.71
2018-05-06T22:32:31.695Z,13.68
2018-05-06T22:33:32.216Z,13.68
2018-05-06T22:34:31.218Z,13.70
2018-05-06T22:35:33.200Z,13.63
2018-05-06T22:36:32.208Z,13.57
2018-05-06T22:37:32.706Z,13.52
2018-05-06T22:38:32.714Z,13.57
2018-05-06T22:39:31.717Z,13.50
2018-05-06T22:40:31.717Z,13.52
2018-05-06T22:41:31.784Z,13.53
2018-05-06T22:42:31.212Z,13.46
2018-05-06T22:43:31.711Z,13.41
2018-05-06T22:44:31.217Z,13.39
2018-05-06T22:45:30.358Z,13.39
2018-05-06T22:46:31.160Z,13.41
2018-05-06T22:47:32.201Z,13.38
2018-05-06T22:48:31.217Z,13.39
2018-05-06T22:49:31.201Z,13.38
2018-05-06T22:50:32.706Z,13.31
2018-05-06T22:51:31.716Z,13.42
2018-05-06T22:52:32.203Z,13.41
2018-05-06T22:53:30.372Z,13.38
2018-05-06T22:54:32.218Z,13.37
2018-05-06T22:55:31.735Z,13.20
2018-05-06T22:56:34.209Z,13.27
2018-05-06T22:57:31.217Z,13.18
2018-05-06T22:58:31.231Z,13.19
2018-05-06T22:59:31.261Z,13.11
2018-05-06T23:00:32.305Z,13.13
2018-05-06T23:01:32.718Z,13.18
2018-05-06T23:02:31.746Z,13.13
2018-05-06T23:03:31.213Z,13.04
2018-05-06T23:04:31.225Z,13.16
2018-05-06T23:05:31.813Z,13.00
2018-05-06T23:06:33.709Z,13.05
2018-05-06T23:07:31.702Z,13.19
2018-05-06T23:08:34.711Z,13.05
2018-05-06T23:09:32.217Z,13.01
2018-05-06T23:10:31.734Z,13.01
2018-05-06T23:11:32.206Z,12.98
2018-05-06T23:12:31.222Z,12.97
2018-05-06T23:13:31.724Z,12.91
2018-05-06T23:14:30.334Z,12.82
2018-05-06T23:15:31.173Z,12.91
2018-05-06T23:16:31.222Z,12.87
2018-05-06T23:17:31.232Z,12.79
2018-05-06T23:18:31.222Z,12.70
2018-05-06T23:19:32.733Z,12.87
2018-05-06T23:20:32.215Z,12.72
2018-05-06T23:21:31.713Z,12.70
2018-05-06T23:22:31.232Z,12.73
2018-05-06T23:23:31.220Z,12.70
2018-05-06T23:24:31.206Z,12.70
2018-05-06T23:25:31.721Z,12.72
2018-05-06T23:26:32.271Z,12.70
2018-05-06T23:27:31.194Z,12.80
2018-05-06T23:28:31.716Z,12.73
2018-05-06T23:29:31.735Z,12.73
2018-05-06T23:30:30.864Z,12.75
2018-05-06T23:31:30.855Z,12.68
2018-05-06T23:32:31.218Z,12.72
2018-05-06T23:33:32.215Z,12.72
2018-05-06T23:34:32.235Z,12.68
2018-05-06T23:35:33.733Z,12.73
2018-05-06T23:36:32.235Z,12.65
2018-05-06T23:37:32.229Z,12.73
2018-05-06T23:38:32.209Z,12.67
2018-05-06T23:39:31.725Z,12.67
2018-05-06T23:40:32.216Z,12.57
2018-05-06T23:41:32.222Z,12.62
2018-05-06T23:42:31.725Z,12.62
2018-05-06T23:43:31.719Z,12.62
2018-05-06T23:44:32.216Z,12.62
2018-05-06T23:45:31.230Z,12.49
2018-05-06T23:46:32.212Z,12.54
2018-05-06T23:47:32.223Z,12.45
2018-05-06T23:48:31.707Z,12.50
2018-05-06T23:49:31.726Z,12.50
2018-05-06T23:50:33.193Z,12.50
2018-05-06T23:51:31.729Z,12.46
2018-05-06T23:52:31.734Z,12.42
2018-05-06T23:53:34.215Z,12.42
2018-05-06T23:54:33.226Z,12.39
2018-05-06T23:55:31.752Z,12.36
2018-05-06T23:56:31.263Z,12.39
2018-05-06T23:57:31.719Z,12.32
2018-05-06T23:58:31.316Z,12.35
2018-05-06T23:59:31.735Z,12.36
